sensor_id;sensor_type;location;lat;lon;timestamp;P1;durP1;ratioP1;P2;durP2;ratioP2
64789;SDS011;51223;51.816;5.862;2022-12-18T00:01:03;8.35;;;4.85;;
64789;SDS011;51223;51.816;5.862;2022-12-18T00:03:33;5.85;;;4.82;;
64789;SDS011;51223;51.816;5.862;2022-12-18T00:05:59;7.40;;;5.55;;
64789;SDS011;51223;51.816;5.862;2022-12-18T00:08:25;8.88;;;4.60;;
64789;SDS011;51223;51.816;5.862;2022-12-18T00:10:51;8.25;;;6.30;;
64789;SDS011;51223;51.816;5.862;2022-12-18T00:13:16;13.55;;;7.32;;
64789;SDS011;51223;51.816;5.862;2022-12-18T00:15:42;9.02;;;6.20;;
64789;SDS011;51223;51.816;5.862;2022-12-18T00:18:08;9.52;;;6.30;;
64789;SDS011;51223;51.816;5.862;2022-12-18T00:20:37;14.23;;;7.18;;
64789;SDS011;51223;51.816;5.862;2022-12-18T00:23:05;12.43;;;7.38;;
64789;SDS011;51223;51.816;5.862;2022-12-18T00:25:35;8.80;;;5.28;;
64789;SDS011;51223;51.816;5.862;2022-12-18T00:28:04;8.52;;;5.72;;
64789;SDS011;51223;51.816;5.862;2022-12-18T00:30:30;8.48;;;5.32;;
64789;SDS011;51223;51.816;5.862;2022-12-18T00:32:56;8.68;;;5.30;;
64789;SDS011;51223;51.816;5.862;2022-12-18T00:35:22;7.47;;;5.25;;
64789;SDS011;51223;51.816;5.862;2022-12-18T00:37:48;17.27;;;6.63;;
64789;SDS011;51223;51.816;5.862;2022-12-18T00:40:14;10.60;;;6.70;;
64789;SDS011;51223;51.816;5.862;2022-12-18T00:42:40;8.60;;;5.72;;
64789;SDS011;51223;51.816;5.862;2022-12-18T00:45:28;8.63;;;5.25;;
64789;SDS011;51223;51.816;5.862;2022-12-18T00:47:55;7.15;;;4.68;;
64789;SDS011;51223;51.816;5.862;2022-12-18T00:50:22;9.77;;;4.38;;
64789;SDS011;51223;51.816;5.862;2022-12-18T00:52:49;8.43;;;4.97;;
64789;SDS011;51223;51.816;5.862;2022-12-18T00:55:15;10.40;;;5.93;;
64789;SDS011;51223;51.816;5.862;2022-12-18T00:57:42;6.50;;;3.78;;
64789;SDS011;51223;51.816;5.862;2022-12-18T01:00:09;5.50;;;4.57;;
64789;SDS011;51223;51.816;5.862;2022-12-18T01:02:38;6.75;;;4.50;;
64789;SDS011;51223;51.816;5.862;2022-12-18T01:05:04;6.30;;;3.55;;
64789;SDS011;51223;51.816;5.862;2022-12-18T01:07:30;9.07;;;5.38;;
64789;SDS011;51223;51.816;5.862;2022-12-18T01:09:56;7.30;;;5.38;;
64789;SDS011;51223;51.816;5.862;2022-12-18T01:12:22;4.25;;;2.95;;
64789;SDS011;51223;51.816;5.862;2022-12-18T01:14:48;5.88;;;4.28;;
64789;SDS011;51223;51.816;5.862;2022-12-18T01:17:13;8.38;;;4.40;;
64789;SDS011;51223;51.816;5.862;2022-12-18T01:19:39;5.43;;;4.57;;
64789;SDS011;51223;51.816;5.862;2022-12-18T01:22:05;4.15;;;3.20;;
64789;SDS011;51223;51.816;5.862;2022-12-18T01:24:31;11.32;;;5.65;;
64789;SDS011;51223;51.816;5.862;2022-12-18T01:26:57;6.80;;;4.28;;
64789;SDS011;51223;51.816;5.862;2022-12-18T01:29:23;10.55;;;4.60;;
64789;SDS011;51223;51.816;5.862;2022-12-18T01:31:49;7.10;;;4.25;;
64789;SDS011;51223;51.816;5.862;2022-12-18T01:34:15;8.98;;;4.65;;
64789;SDS011;51223;51.816;5.862;2022-12-18T01:36:41;7.90;;;3.40;;
64789;SDS011;51223;51.816;5.862;2022-12-18T01:39:08;4.20;;;3.20;;
64789;SDS011;51223;51.816;5.862;2022-12-18T01:41:37;5.60;;;4.95;;
64789;SDS011;51223;51.816;5.862;2022-12-18T01:52:46;5.63;;;3.07;;
64789;SDS011;51223;51.816;5.862;2022-12-18T01:55:15;12.73;;;3.65;;
64789;SDS011;51223;51.816;5.862;2022-12-18T01:57:43;6.47;;;4.15;;
64789;SDS011;51223;51.816;5.862;2022-12-18T02:00:11;5.60;;;4.05;;
64789;SDS011;51223;51.816;5.862;2022-12-18T02:02:41;9.27;;;4.10;;
64789;SDS011;51223;51.816;5.862;2022-12-18T02:05:09;8.85;;;3.95;;
64789;SDS011;51223;51.816;5.862;2022-12-18T02:12:54;3.35;;;2.67;;
64789;SDS011;51223;51.816;5.862;2022-12-18T02:15:31;6.40;;;3.83;;
64789;SDS011;51223;51.816;5.862;2022-12-18T02:18:07;5.60;;;3.05;;
64789;SDS011;51223;51.816;5.862;2022-12-18T02:20:43;2.38;;;2.00;;
64789;SDS011;51223;51.816;5.862;2022-12-18T02:23:45;4.32;;;2.83;;
64789;SDS011;51223;51.816;5.862;2022-12-18T02:26:28;8.50;;;5.03;;
64789;SDS011;51223;51.816;5.862;2022-12-18T02:29:02;3.15;;;2.70;;
64789;SDS011;51223;51.816;5.862;2022-12-18T02:31:53;6.40;;;3.92;;
64789;SDS011;51223;51.816;5.862;2022-12-18T02:34:22;4.47;;;3.20;;
64789;SDS011;51223;51.816;5.862;2022-12-18T02:36:52;4.07;;;3.42;;
64789;SDS011;51223;51.816;5.862;2022-12-18T02:39:20;5.28;;;3.60;;
64789;SDS011;51223;51.816;5.862;2022-12-18T02:41:49;5.35;;;3.75;;
64789;SDS011;51223;51.816;5.862;2022-12-18T02:44:15;3.10;;;2.35;;
64789;SDS011;51223;51.816;5.862;2022-12-18T02:46:51;3.22;;;2.63;;
64789;SDS011;51223;51.816;5.862;2022-12-18T02:49:24;5.45;;;2.95;;
64789;SDS011;51223;51.816;5.862;2022-12-18T02:52:10;5.65;;;4.05;;
64789;SDS011;51223;51.816;5.862;2022-12-18T02:54:57;3.45;;;2.42;;
64789;SDS011;51223;51.816;5.862;2022-12-18T02:57:36;3.92;;;3.08;;
64789;SDS011;51223;51.816;5.862;2022-12-18T03:00:15;3.78;;;2.83;;
64789;SDS011;51223;51.816;5.862;2022-12-18T03:05:16;4.15;;;3.15;;
64789;SDS011;51223;51.816;5.862;2022-12-18T03:07:47;5.28;;;3.47;;
64789;SDS011;51223;51.816;5.862;2022-12-18T03:10:19;3.13;;;2.58;;
64789;SDS011;51223;51.816;5.862;2022-12-18T03:13:00;5.15;;;3.22;;
64789;SDS011;51223;51.816;5.862;2022-12-18T03:15:33;5.13;;;3.70;;
64789;SDS011;51223;51.816;5.862;2022-12-18T03:18:04;5.35;;;3.00;;
64789;SDS011;51223;51.816;5.862;2022-12-18T03:20:34;6.13;;;2.55;;
64789;SDS011;51223;51.816;5.862;2022-12-18T03:23:04;4.68;;;2.95;;
64789;SDS011;51223;51.816;5.862;2022-12-18T03:25:34;4.75;;;3.00;;
64789;SDS011;51223;51.816;5.862;2022-12-18T03:28:05;5.45;;;2.80;;
64789;SDS011;51223;51.816;5.862;2022-12-18T03:30:34;4.00;;;3.40;;
64789;SDS011;51223;51.816;5.862;2022-12-18T03:33:05;3.05;;;2.30;;
64789;SDS011;51223;51.816;5.862;2022-12-18T03:35:37;7.80;;;3.88;;
64789;SDS011;51223;51.816;5.862;2022-12-18T03:38:07;2.50;;;2.17;;
64789;SDS011;51223;51.816;5.862;2022-12-18T03:40:43;5.63;;;4.07;;
64789;SDS011;51223;51.816;5.862;2022-12-18T03:46:28;4.20;;;2.85;;
64789;SDS011;51223;51.816;5.862;2022-12-18T03:49:01;4.95;;;3.30;;
64789;SDS011;51223;51.816;5.862;2022-12-18T03:51:38;4.47;;;3.33;;
64789;SDS011;51223;51.816;5.862;2022-12-18T03:54:17;4.75;;;2.30;;
64789;SDS011;51223;51.816;5.862;2022-12-18T03:56:48;3.58;;;2.30;;
64789;SDS011;51223;51.816;5.862;2022-12-18T03:59:18;3.60;;;2.75;;
64789;SDS011;51223;51.816;5.862;2022-12-18T04:01:48;7.47;;;3.95;;
64789;SDS011;51223;51.816;5.862;2022-12-18T04:04:16;5.80;;;3.50;;
64789;SDS011;51223;51.816;5.862;2022-12-18T04:06:44;5.78;;;3.00;;
64789;SDS011;51223;51.816;5.862;2022-12-18T04:09:12;4.03;;;1.98;;
64789;SDS011;51223;51.816;5.862;2022-12-18T04:11:39;2.83;;;2.03;;
64789;SDS011;51223;51.816;5.862;2022-12-18T04:14:06;5.22;;;2.92;;
64789;SDS011;51223;51.816;5.862;2022-12-18T04:16:32;3.58;;;2.67;;
64789;SDS011;51223;51.816;5.862;2022-12-18T04:18:58;3.05;;;1.98;;
64789;SDS011;51223;51.816;5.862;2022-12-18T04:21:24;2.33;;;1.42;;
64789;SDS011;51223;51.816;5.862;2022-12-18T04:23:50;2.95;;;2.05;;
64789;SDS011;51223;51.816;5.862;2022-12-18T04:26:16;4.97;;;3.40;;
64789;SDS011;51223;51.816;5.862;2022-12-18T04:28:41;4.85;;;2.58;;
64789;SDS011;51223;51.816;5.862;2022-12-18T04:31:08;2.70;;;2.28;;
64789;SDS011;51223;51.816;5.862;2022-12-18T04:33:33;3.55;;;3.20;;
64789;SDS011;51223;51.816;5.862;2022-12-18T04:35:59;4.45;;;3.42;;
64789;SDS011;51223;51.816;5.862;2022-12-18T04:38:25;3.45;;;3.08;;
64789;SDS011;51223;51.816;5.862;2022-12-18T04:40:51;3.63;;;2.53;;
64789;SDS011;51223;51.816;5.862;2022-12-18T04:43:17;1.70;;;1.60;;
64789;SDS011;51223;51.816;5.862;2022-12-18T04:45:42;6.43;;;3.00;;
64789;SDS011;51223;51.816;5.862;2022-12-18T04:48:08;4.28;;;2.53;;
64789;SDS011;51223;51.816;5.862;2022-12-18T04:50:34;2.45;;;1.98;;
64789;SDS011;51223;51.816;5.862;2022-12-18T04:53:00;3.97;;;2.42;;
64789;SDS011;51223;51.816;5.862;2022-12-18T04:55:26;3.10;;;2.08;;
64789;SDS011;51223;51.816;5.862;2022-12-18T04:57:52;3.88;;;2.47;;
64789;SDS011;51223;51.816;5.862;2022-12-18T05:00:18;3.03;;;2.33;;
64789;SDS011;51223;51.816;5.862;2022-12-18T05:02:44;2.80;;;2.38;;
64789;SDS011;51223;51.816;5.862;2022-12-18T05:05:10;4.57;;;2.65;;
64789;SDS011;51223;51.816;5.862;2022-12-18T05:07:36;3.08;;;2.05;;
64789;SDS011;51223;51.816;5.862;2022-12-18T05:10:02;4.35;;;2.55;;
64789;SDS011;51223;51.816;5.862;2022-12-18T05:12:28;2.00;;;1.83;;
64789;SDS011;51223;51.816;5.862;2022-12-18T05:14:56;6.45;;;2.83;;
64789;SDS011;51223;51.816;5.862;2022-12-18T05:17:22;3.38;;;2.05;;
64789;SDS011;51223;51.816;5.862;2022-12-18T05:19:48;2.20;;;1.88;;
64789;SDS011;51223;51.816;5.862;2022-12-18T05:22:13;3.97;;;2.58;;
64789;SDS011;51223;51.816;5.862;2022-12-18T05:24:39;4.05;;;2.13;;
64789;SDS011;51223;51.816;5.862;2022-12-18T05:27:05;4.47;;;3.22;;
64789;SDS011;51223;51.816;5.862;2022-12-18T05:29:31;4.65;;;2.55;;
64789;SDS011;51223;51.816;5.862;2022-12-18T05:31:57;4.78;;;2.20;;
64789;SDS011;51223;51.816;5.862;2022-12-18T05:34:23;3.92;;;2.55;;
64789;SDS011;51223;51.816;5.862;2022-12-18T05:36:49;3.45;;;1.80;;
64789;SDS011;51223;51.816;5.862;2022-12-18T05:39:14;2.85;;;2.40;;
64789;SDS011;51223;51.816;5.862;2022-12-18T05:41:40;5.07;;;2.90;;
64789;SDS011;51223;51.816;5.862;2022-12-18T05:44:06;7.30;;;3.50;;
64789;SDS011;51223;51.816;5.862;2022-12-18T05:46:32;9.77;;;3.45;;
64789;SDS011;51223;51.816;5.862;2022-12-18T05:49:01;5.82;;;2.42;;
64789;SDS011;51223;51.816;5.862;2022-12-18T05:51:27;4.82;;;2.83;;
64789;SDS011;51223;51.816;5.862;2022-12-18T05:53:53;4.60;;;3.08;;
64789;SDS011;51223;51.816;5.862;2022-12-18T05:56:20;4.10;;;3.30;;
64789;SDS011;51223;51.816;5.862;2022-12-18T05:58:47;4.32;;;2.08;;
64789;SDS011;51223;51.816;5.862;2022-12-18T06:01:18;2.38;;;1.88;;
64789;SDS011;51223;51.816;5.862;2022-12-18T06:03:46;2.53;;;2.33;;
64789;SDS011;51223;51.816;5.862;2022-12-18T06:06:12;3.85;;;2.03;;
64789;SDS011;51223;51.816;5.862;2022-12-18T06:08:42;8.63;;;2.92;;
64789;SDS011;51223;51.816;5.862;2022-12-18T06:11:08;5.15;;;3.00;;
64789;SDS011;51223;51.816;5.862;2022-12-18T06:13:34;3.20;;;1.88;;
64789;SDS011;51223;51.816;5.862;2022-12-18T06:16:01;1.80;;;1.45;;
64789;SDS011;51223;51.816;5.862;2022-12-18T06:18:28;3.90;;;2.67;;
64789;SDS011;51223;51.816;5.862;2022-12-18T06:20:58;1.48;;;0.98;;
64789;SDS011;51223;51.816;5.862;2022-12-18T06:23:24;4.13;;;2.20;;
64789;SDS011;51223;51.816;5.862;2022-12-18T06:25:50;3.70;;;2.10;;
64789;SDS011;51223;51.816;5.862;2022-12-18T06:28:16;5.45;;;3.15;;
64789;SDS011;51223;51.816;5.862;2022-12-18T06:30:46;1.70;;;1.50;;
64789;SDS011;51223;51.816;5.862;2022-12-18T06:33:14;3.83;;;2.10;;
64789;SDS011;51223;51.816;5.862;2022-12-18T06:35:40;2.88;;;2.55;;
64789;SDS011;51223;51.816;5.862;2022-12-18T06:38:06;1.25;;;1.15;;
64789;SDS011;51223;51.816;5.862;2022-12-18T06:40:32;1.67;;;1.58;;
64789;SDS011;51223;51.816;5.862;2022-12-18T06:42:58;1.60;;;1.50;;
64789;SDS011;51223;51.816;5.862;2022-12-18T06:45:24;2.55;;;2.30;;
64789;SDS011;51223;51.816;5.862;2022-12-18T06:47:50;2.75;;;2.03;;
64789;SDS011;51223;51.816;5.862;2022-12-18T06:50:16;2.22;;;1.13;;
64789;SDS011;51223;51.816;5.862;2022-12-18T06:52:42;5.82;;;2.80;;
64789;SDS011;51223;51.816;5.862;2022-12-18T06:55:09;2.20;;;1.70;;
64789;SDS011;51223;51.816;5.862;2022-12-18T06:57:36;0.95;;;0.95;;
64789;SDS011;51223;51.816;5.862;2022-12-18T07:00:04;4.05;;;2.38;;
64789;SDS011;51223;51.816;5.862;2022-12-18T07:02:31;5.78;;;3.75;;
64789;SDS011;51223;51.816;5.862;2022-12-18T07:04:57;4.40;;;2.75;;
64789;SDS011;51223;51.816;5.862;2022-12-18T07:07:23;5.00;;;3.10;;
64789;SDS011;51223;51.816;5.862;2022-12-18T07:09:50;2.10;;;1.45;;
64789;SDS011;51223;51.816;5.862;2022-12-18T07:12:16;1.92;;;1.83;;
64789;SDS011;51223;51.816;5.862;2022-12-18T07:14:42;2.95;;;2.33;;
64789;SDS011;51223;51.816;5.862;2022-12-18T07:17:07;3.90;;;2.53;;
64789;SDS011;51223;51.816;5.862;2022-12-18T07:19:33;2.78;;;2.05;;
64789;SDS011;51223;51.816;5.862;2022-12-18T07:21:59;5.13;;;2.38;;
64789;SDS011;51223;51.816;5.862;2022-12-18T07:24:25;6.95;;;3.33;;
64789;SDS011;51223;51.816;5.862;2022-12-18T07:26:51;5.85;;;3.25;;
64789;SDS011;51223;51.816;5.862;2022-12-18T07:29:18;6.43;;;3.17;;
64789;SDS011;51223;51.816;5.862;2022-12-18T07:31:43;2.55;;;2.40;;
64789;SDS011;51223;51.816;5.862;2022-12-18T07:34:10;2.47;;;2.20;;
64789;SDS011;51223;51.816;5.862;2022-12-18T07:36:37;3.28;;;2.88;;
64789;SDS011;51223;51.816;5.862;2022-12-18T07:39:03;2.22;;;2.00;;
64789;SDS011;51223;51.816;5.862;2022-12-18T07:41:28;5.75;;;3.15;;
64789;SDS011;51223;51.816;5.862;2022-12-18T07:43:54;2.55;;;1.95;;
64789;SDS011;51223;51.816;5.862;2022-12-18T07:46:20;3.15;;;2.17;;
64789;SDS011;51223;51.816;5.862;2022-12-18T07:48:46;5.05;;;3.53;;
64789;SDS011;51223;51.816;5.862;2022-12-18T07:51:12;1.33;;;1.23;;
64789;SDS011;51223;51.816;5.862;2022-12-18T07:53:38;2.95;;;2.20;;
64789;SDS011;51223;51.816;5.862;2022-12-18T07:56:05;1.92;;;1.75;;
64789;SDS011;51223;51.816;5.862;2022-12-18T07:58:32;8.70;;;3.42;;
64789;SDS011;51223;51.816;5.862;2022-12-18T08:01:02;4.68;;;3.63;;
64789;SDS011;51223;51.816;5.862;2022-12-18T08:03:32;6.25;;;3.03;;
64789;SDS011;51223;51.816;5.862;2022-12-18T08:05:59;5.93;;;3.25;;
64789;SDS011;51223;51.816;5.862;2022-12-18T08:08:29;10.88;;;2.45;;
64789;SDS011;51223;51.816;5.862;2022-12-18T08:10:55;6.60;;;4.07;;
64789;SDS011;51223;51.816;5.862;2022-12-18T08:13:21;4.30;;;2.15;;
64789;SDS011;51223;51.816;5.862;2022-12-18T08:16:04;2.95;;;2.00;;
64789;SDS011;51223;51.816;5.862;2022-12-18T08:18:35;2.17;;;1.50;;
64789;SDS011;51223;51.816;5.862;2022-12-18T08:21:08;0.43;;;0.43;;
64789;SDS011;51223;51.816;5.862;2022-12-18T08:23:42;0.73;;;0.50;;
64789;SDS011;51223;51.816;5.862;2022-12-18T08:26:08;1.88;;;1.42;;
64789;SDS011;51223;51.816;5.862;2022-12-18T08:28:34;2.25;;;1.60;;
64789;SDS011;51223;51.816;5.862;2022-12-18T08:31:00;26.20;;;1.42;;
64789;SDS011;51223;51.816;5.862;2022-12-18T08:33:26;1.90;;;1.55;;
64789;SDS011;51223;51.816;5.862;2022-12-18T08:35:52;2.90;;;1.88;;
64789;SDS011;51223;51.816;5.862;2022-12-18T08:38:18;1.38;;;1.27;;
64789;SDS011;51223;51.816;5.862;2022-12-18T08:40:44;1.33;;;1.23;;
64789;SDS011;51223;51.816;5.862;2022-12-18T08:43:10;1.77;;;1.35;;
64789;SDS011;51223;51.816;5.862;2022-12-18T08:45:54;1.70;;;1.45;;
64789;SDS011;51223;51.816;5.862;2022-12-18T08:48:20;1.45;;;1.27;;
64789;SDS011;51223;51.816;5.862;2022-12-18T08:50:56;2.70;;;1.95;;
64789;SDS011;51223;51.816;5.862;2022-12-18T08:53:25;5.10;;;3.03;;
64789;SDS011;51223;51.816;5.862;2022-12-18T08:55:52;1.40;;;0.88;;
64789;SDS011;51223;51.816;5.862;2022-12-18T08:58:19;1.33;;;1.23;;
64789;SDS011;51223;51.816;5.862;2022-12-18T09:00:45;4.65;;;2.63;;
64789;SDS011;51223;51.816;5.862;2022-12-18T09:03:12;4.03;;;2.10;;
64789;SDS011;51223;51.816;5.862;2022-12-18T09:05:42;1.75;;;1.48;;
64789;SDS011;51223;51.816;5.862;2022-12-18T09:08:08;1.40;;;1.25;;
64789;SDS011;51223;51.816;5.862;2022-12-18T09:10:40;3.25;;;2.25;;
64789;SDS011;51223;51.816;5.862;2022-12-18T09:13:07;4.55;;;1.73;;
64789;SDS011;51223;51.816;5.862;2022-12-18T09:15:33;1.65;;;1.10;;
64789;SDS011;51223;51.816;5.862;2022-12-18T09:17:59;1.42;;;1.33;;
64789;SDS011;51223;51.816;5.862;2022-12-18T09:20:25;3.70;;;1.83;;
64789;SDS011;51223;51.816;5.862;2022-12-18T09:22:53;0.47;;;0.45;;
64789;SDS011;51223;51.816;5.862;2022-12-18T09:25:19;3.90;;;2.08;;
64789;SDS011;51223;51.816;5.862;2022-12-18T09:27:46;2.13;;;1.92;;
64789;SDS011;51223;51.816;5.862;2022-12-18T09:30:12;5.10;;;2.78;;
64789;SDS011;51223;51.816;5.862;2022-12-18T09:32:38;3.17;;;2.42;;
64789;SDS011;51223;51.816;5.862;2022-12-18T09:35:04;6.50;;;3.97;;
64789;SDS011;51223;51.816;5.862;2022-12-18T09:37:30;3.28;;;1.95;;
64789;SDS011;51223;51.816;5.862;2022-12-18T09:39:56;4.05;;;2.53;;
64789;SDS011;51223;51.816;5.862;2022-12-18T09:42:22;3.00;;;2.50;;
64789;SDS011;51223;51.816;5.862;2022-12-18T09:44:52;5.20;;;2.72;;
64789;SDS011;51223;51.816;5.862;2022-12-18T09:49:58;4.07;;;1.80;;
64789;SDS011;51223;51.816;5.862;2022-12-18T09:52:28;3.55;;;1.65;;
64789;SDS011;51223;51.816;5.862;2022-12-18T09:57:37;2.40;;;2.20;;
64789;SDS011;51223;51.816;5.862;2022-12-18T10:00:13;4.72;;;2.78;;
64789;SDS011;51223;51.816;5.862;2022-12-18T10:02:43;3.28;;;2.00;;
64789;SDS011;51223;51.816;5.862;2022-12-18T10:08:30;4.43;;;2.20;;
64789;SDS011;51223;51.816;5.862;2022-12-18T10:21:59;7.90;;;3.22;;
64789;SDS011;51223;51.816;5.862;2022-12-18T10:27:21;1.20;;;1.13;;
64789;SDS011;51223;51.816;5.862;2022-12-18T10:29:49;2.53;;;1.48;;
64789;SDS011;51223;51.816;5.862;2022-12-18T10:32:15;6.72;;;3.35;;
64789;SDS011;51223;51.816;5.862;2022-12-18T10:34:49;2.67;;;1.77;;
64789;SDS011;51223;51.816;5.862;2022-12-18T10:37:16;1.13;;;1.05;;
64789;SDS011;51223;51.816;5.862;2022-12-18T10:39:44;7.13;;;3.00;;
64789;SDS011;51223;51.816;5.862;2022-12-18T10:42:13;3.25;;;2.22;;
64789;SDS011;51223;51.816;5.862;2022-12-18T10:44:43;1.05;;;0.85;;
64789;SDS011;51223;51.816;5.862;2022-12-18T10:47:14;7.50;;;2.47;;
64789;SDS011;51223;51.816;5.862;2022-12-18T10:49:47;4.03;;;2.15;;
64789;SDS011;51223;51.816;5.862;2022-12-18T10:52:20;4.18;;;3.25;;
64789;SDS011;51223;51.816;5.862;2022-12-18T10:54:51;5.50;;;2.28;;
64789;SDS011;51223;51.816;5.862;2022-12-18T10:59:52;3.03;;;2.45;;
64789;SDS011;51223;51.816;5.862;2022-12-18T11:02:36;7.65;;;4.18;;
64789;SDS011;51223;51.816;5.862;2022-12-18T11:05:22;9.88;;;5.55;;
64789;SDS011;51223;51.816;5.862;2022-12-18T11:07:51;6.35;;;3.40;;
64789;SDS011;51223;51.816;5.862;2022-12-18T11:10:20;6.10;;;3.03;;
64789;SDS011;51223;51.816;5.862;2022-12-18T11:12:47;3.20;;;2.55;;
64789;SDS011;51223;51.816;5.862;2022-12-18T11:15:15;1.20;;;1.10;;
64789;SDS011;51223;51.816;5.862;2022-12-18T11:17:44;5.28;;;3.13;;
64789;SDS011;51223;51.816;5.862;2022-12-18T11:23:02;4.00;;;2.75;;
64789;SDS011;51223;51.816;5.862;2022-12-18T11:25:31;3.30;;;2.25;;
64789;SDS011;51223;51.816;5.862;2022-12-18T11:28:05;2.80;;;2.33;;
64789;SDS011;51223;51.816;5.862;2022-12-18T11:30:51;3.85;;;2.42;;
64789;SDS011;51223;51.816;5.862;2022-12-18T11:33:37;7.32;;;3.63;;
64789;SDS011;51223;51.816;5.862;2022-12-18T11:36:07;6.70;;;3.80;;
64789;SDS011;51223;51.816;5.862;2022-12-18T11:38:38;6.70;;;4.30;;
64789;SDS011;51223;51.816;5.862;2022-12-18T11:44:16;4.10;;;2.95;;
64789;SDS011;51223;51.816;5.862;2022-12-18T11:46:55;7.07;;;4.28;;
64789;SDS011;51223;51.816;5.862;2022-12-18T11:49:28;8.20;;;4.07;;
64789;SDS011;51223;51.816;5.862;2022-12-18T11:52:19;3.97;;;2.35;;
64789;SDS011;51223;51.816;5.862;2022-12-18T11:54:52;7.63;;;4.90;;
64789;SDS011;51223;51.816;5.862;2022-12-18T11:57:26;8.68;;;4.05;;
64789;SDS011;51223;51.816;5.862;2022-12-18T12:00:07;7.47;;;3.88;;
64789;SDS011;51223;51.816;5.862;2022-12-18T12:02:45;8.93;;;5.18;;
64789;SDS011;51223;51.816;5.862;2022-12-18T12:05:45;4.10;;;2.72;;
64789;SDS011;51223;51.816;5.862;2022-12-18T12:10:57;3.70;;;2.90;;
64789;SDS011;51223;51.816;5.862;2022-12-18T12:13:49;7.35;;;3.85;;
64789;SDS011;51223;51.816;5.862;2022-12-18T12:16:46;5.78;;;3.72;;
64789;SDS011;51223;51.816;5.862;2022-12-18T12:19:38;3.50;;;1.80;;
64789;SDS011;51223;51.816;5.862;2022-12-18T12:22:21;1.20;;;1.10;;
64789;SDS011;51223;51.816;5.862;2022-12-18T12:27:44;4.97;;;4.15;;
64789;SDS011;51223;51.816;5.862;2022-12-18T12:30:22;3.55;;;2.80;;
64789;SDS011;51223;51.816;5.862;2022-12-18T12:33:07;3.47;;;2.05;;
64789;SDS011;51223;51.816;5.862;2022-12-18T12:38:35;0.65;;;0.60;;
64789;SDS011;51223;51.816;5.862;2022-12-18T12:41:09;3.28;;;2.38;;
64789;SDS011;51223;51.816;5.862;2022-12-18T12:44:00;5.03;;;3.45;;
64789;SDS011;51223;51.816;5.862;2022-12-18T12:46:31;0.88;;;0.88;;
64789;SDS011;51223;51.816;5.862;2022-12-18T12:49:01;6.88;;;2.72;;
64789;SDS011;51223;51.816;5.862;2022-12-18T12:51:31;2.35;;;1.63;;
64789;SDS011;51223;51.816;5.862;2022-12-18T12:54:00;2.20;;;2.00;;
64789;SDS011;51223;51.816;5.862;2022-12-18T12:56:38;4.25;;;2.50;;
64789;SDS011;51223;51.816;5.862;2022-12-18T13:01:53;1.88;;;1.50;;
64789;SDS011;51223;51.816;5.862;2022-12-18T13:07:31;3.72;;;2.33;;
64789;SDS011;51223;51.816;5.862;2022-12-18T13:12:58;2.40;;;2.00;;
64789;SDS011;51223;51.816;5.862;2022-12-18T13:18:05;6.78;;;3.78;;
64789;SDS011;51223;51.816;5.862;2022-12-18T13:20:38;4.15;;;2.78;;
64789;SDS011;51223;51.816;5.862;2022-12-18T13:25:51;4.47;;;2.47;;
64789;SDS011;51223;51.816;5.862;2022-12-18T13:34:25;5.35;;;3.35;;
64789;SDS011;51223;51.816;5.862;2022-12-18T13:36:55;3.97;;;2.45;;
64789;SDS011;51223;51.816;5.862;2022-12-18T13:39:41;5.30;;;4.13;;
64789;SDS011;51223;51.816;5.862;2022-12-18T13:44:34;3.13;;;2.17;;
64789;SDS011;51223;51.816;5.862;2022-12-18T13:47:02;6.72;;;4.05;;
64789;SDS011;51223;51.816;5.862;2022-12-18T13:49:39;4.78;;;3.83;;
64789;SDS011;51223;51.816;5.862;2022-12-18T13:52:18;8.52;;;3.70;;
64789;SDS011;51223;51.816;5.862;2022-12-18T13:54:50;4.70;;;3.05;;
64789;SDS011;51223;51.816;5.862;2022-12-18T13:57:36;3.63;;;2.38;;
64789;SDS011;51223;51.816;5.862;2022-12-18T14:02:48;7.72;;;5.00;;
64789;SDS011;51223;51.816;5.862;2022-12-18T14:07:53;3.95;;;2.55;;
64789;SDS011;51223;51.816;5.862;2022-12-18T14:10:20;6.88;;;4.22;;
64789;SDS011;51223;51.816;5.862;2022-12-18T14:12:47;13.02;;;4.43;;
64789;SDS011;51223;51.816;5.862;2022-12-18T14:18:00;4.03;;;2.95;;
64789;SDS011;51223;51.816;5.862;2022-12-18T14:20:43;5.82;;;2.88;;
64789;SDS011;51223;51.816;5.862;2022-12-18T14:26:03;5.05;;;4.07;;
64789;SDS011;51223;51.816;5.862;2022-12-18T14:28:50;4.85;;;2.60;;
64789;SDS011;51223;51.816;5.862;2022-12-18T14:31:20;4.15;;;3.65;;
64789;SDS011;51223;51.816;5.862;2022-12-18T14:33:49;4.95;;;2.78;;
64789;SDS011;51223;51.816;5.862;2022-12-18T14:36:17;6.35;;;4.13;;
64789;SDS011;51223;51.816;5.862;2022-12-18T14:38:47;7.05;;;4.50;;
64789;SDS011;51223;51.816;5.862;2022-12-18T14:41:16;5.88;;;4.05;;
64789;SDS011;51223;51.816;5.862;2022-12-18T14:43:44;6.07;;;4.47;;
64789;SDS011;51223;51.816;5.862;2022-12-18T14:49:04;5.50;;;4.40;;
64789;SDS011;51223;51.816;5.862;2022-12-18T14:51:51;7.90;;;4.50;;
64789;SDS011;51223;51.816;5.862;2022-12-18T14:54:19;10.77;;;5.00;;
64789;SDS011;51223;51.816;5.862;2022-12-18T14:56:47;5.25;;;3.67;;
64789;SDS011;51223;51.816;5.862;2022-12-18T14:59:16;7.88;;;5.07;;
64789;SDS011;51223;51.816;5.862;2022-12-18T15:01:46;6.85;;;4.18;;
64789;SDS011;51223;51.816;5.862;2022-12-18T15:04:23;1.17;;;1.08;;
64789;SDS011;51223;51.816;5.862;2022-12-18T15:07:16;5.97;;;3.45;;
64789;SDS011;51223;51.816;5.862;2022-12-18T15:12:39;9.30;;;4.50;;
64789;SDS011;51223;51.816;5.862;2022-12-18T15:20:42;5.82;;;3.78;;
64789;SDS011;51223;51.816;5.862;2022-12-18T15:25:42;11.10;;;3.58;;
64789;SDS011;51223;51.816;5.862;2022-12-18T15:36:18;5.88;;;3.75;;
64789;SDS011;51223;51.816;5.862;2022-12-18T15:38:48;4.78;;;3.92;;
64789;SDS011;51223;51.816;5.862;2022-12-18T15:41:15;3.95;;;3.53;;
64789;SDS011;51223;51.816;5.862;2022-12-18T15:43:42;9.00;;;5.45;;
64789;SDS011;51223;51.816;5.862;2022-12-18T15:48:42;5.43;;;4.00;;
64789;SDS011;51223;51.816;5.862;2022-12-18T15:51:13;6.38;;;4.57;;
64789;SDS011;51223;51.816;5.862;2022-12-18T15:53:42;6.90;;;4.00;;
64789;SDS011;51223;51.816;5.862;2022-12-18T15:56:10;7.75;;;3.45;;
64789;SDS011;51223;51.816;5.862;2022-12-18T15:58:55;4.32;;;3.35;;
64789;SDS011;51223;51.816;5.862;2022-12-18T16:01:21;7.35;;;3.35;;
64789;SDS011;51223;51.816;5.862;2022-12-18T16:03:49;12.73;;;3.78;;
64789;SDS011;51223;51.816;5.862;2022-12-18T16:06:15;6.80;;;4.20;;
64789;SDS011;51223;51.816;5.862;2022-12-18T16:08:41;5.45;;;2.47;;
64789;SDS011;51223;51.816;5.862;2022-12-18T16:11:11;5.60;;;3.47;;
64789;SDS011;51223;51.816;5.862;2022-12-18T16:16:38;3.90;;;3.45;;
64789;SDS011;51223;51.816;5.862;2022-12-18T16:19:04;7.38;;;4.38;;
64789;SDS011;51223;51.816;5.862;2022-12-18T16:21:29;6.65;;;5.03;;
64789;SDS011;51223;51.816;5.862;2022-12-18T16:23:55;6.57;;;4.38;;
64789;SDS011;51223;51.816;5.862;2022-12-18T16:26:21;8.90;;;3.97;;
64789;SDS011;51223;51.816;5.862;2022-12-18T16:28:47;7.63;;;3.97;;
64789;SDS011;51223;51.816;5.862;2022-12-18T16:31:13;8.00;;;4.20;;
64789;SDS011;51223;51.816;5.862;2022-12-18T16:33:38;5.85;;;4.28;;
64789;SDS011;51223;51.816;5.862;2022-12-18T16:36:04;3.53;;;2.13;;
64789;SDS011;51223;51.816;5.862;2022-12-18T16:38:30;8.82;;;4.68;;
64789;SDS011;51223;51.816;5.862;2022-12-18T16:40:56;4.40;;;2.15;;
64789;SDS011;51223;51.816;5.862;2022-12-18T16:43:40;11.17;;;6.50;;
64789;SDS011;51223;51.816;5.862;2022-12-18T16:46:06;1.00;;;0.90;;
64789;SDS011;51223;51.816;5.862;2022-12-18T16:48:35;4.03;;;3.60;;
64789;SDS011;51223;51.816;5.862;2022-12-18T16:51:01;7.82;;;4.60;;
64789;SDS011;51223;51.816;5.862;2022-12-18T16:53:29;10.00;;;5.28;;
64789;SDS011;51223;51.816;5.862;2022-12-18T16:55:55;16.90;;;9.40;;
64789;SDS011;51223;51.816;5.862;2022-12-18T16:58:22;15.80;;;7.93;;
64789;SDS011;51223;51.816;5.862;2022-12-18T17:00:48;15.30;;;7.07;;
64789;SDS011;51223;51.816;5.862;2022-12-18T17:03:13;10.80;;;6.70;;